This demonstration page uses our WeatherBlox Daily Observations layout. Learn more.

41.55636, -103.73856

Hourly Observations for August 26, 2018

Temp ( °F °C ) Dew Point ( °F °C ) Humidity (%) Winds ( mph kmh ) Pressure ( in mb ) Visibility ( mi km ) Precip ( " mm )
12:58 am 00:58 Mostly Clear 66 19 52 11.3 61 61 S 13 20 29.83 1010 10 16.09344 0 0
1:58 am 01:58 Mostly Cloudy 67 19.2 55 13 67 67 S 12 19 29.8 1009 10 16.09344 0 0
2:58 am 02:58 Windy with Rain Showers Likely 65 18.1 57 13.7 76 76 SSW 25 41 29.8 1009 10 16.09344 0 0
3:58 am 03:58 Windy with Rain Showers Likely 63 17.1 58 14.2 83 83 SSW 23 37 29.8 1009 10 16.09344 0.01 0.254
4:58 am 04:58 Mostly Cloudy 67 19.6 51 10.6 56 56 Calm 29.77 1008 10 16.09344 0 0
5:58 am 05:58 Clear 61 15.9 54 12.1 78 78 W 6 9 29.8 1009 10 16.09344 0 0
6:58 am 06:58 Mostly Cloudy 61 16.1 54 12.2 78 78 W 5 7 29.83 1010 10 16.09344 0 0
7:58 am 07:58 Sunny 67 19.2 56 13.2 68 68 W 7 11 29.8 1009 10 16.09344 0 0
8:58 am 08:58 Sunny 75 23.9 49 9.2 39 39 W 10 17 29.8 1009 10 16.09344 0 0
9:58 am 09:58 Sunny 83 28.1 42 5.6 24 24 WNW 13 20 29.77 1008 10 16.09344 0 0
10:58 am 10:58 Sunny 87 30.3 41 4.9 20 20 WNW 15 24 29.74 1007 10 16.09344 0 0
11:58 am 11:58 Partly Cloudy 85 29.6 37 3 18 18 NW 15 24 29.74 1007 10 16.09344 0 0
12:58 pm 12:58 Mostly Sunny 89 31.6 33 0.5 13 13 NW 17 28 29.71 1006 10 16.09344 0 0
1:58 pm 13:58 Sunny 90 32.3 38 3.1 16 16 WNW 17 28 29.71 1006 10 16.09344 0 0
2:58 pm 14:58 Sunny 87 30.5 36 2.2 16 16 W 10 17 29.71 1006 10 16.09344 0 0
3:58 pm 15:58 Mostly Sunny 88 31.3 34 0.9 14 14 WNW 14 22 29.68 1005 10 16.09344 0 0
4:58 pm 16:58 Mostly Sunny 90 32.1 33 0.8 13 13 WNW 14 22 29.65 1004 10 16.09344 0 0
5:58 pm 17:58 Partly Cloudy 85 29.7 37 3 18 18 WNW 9 15 29.68 1005 10 16.09344 0 0
6:58 pm 18:58 Mostly Sunny 81 27 39 3.7 22 22 WNW 7 11 29.68 1005 10 16.09344 0 0
7:58 pm 19:58 Mostly Cloudy 77 25.2 29 -1.8 17 17 WSW 22 35 29.71 1006 10 16.09344 0 0
8:58 pm 20:58 Mostly Cloudy 80 26.9 29 -1.4 16 16 N 13 20 29.68 1005 10 16.09344 0 0
9:58 pm 21:58 Mostly Cloudy 75 24.1 41 5.1 29 29 S 14 22 29.71 1006 10 16.09344 0.02 0.508
10:58 pm 22:58 Mostly Cloudy 68 20 44 6.9 43 43 SSE 9 15 29.71 1006 10 16.09344 0 0
11:58 pm 23:58 Mostly Clear 69 20.6 43 6.3 40 40 SSE 7 11 29.68 1005 10 16.09344 0 0

Powered by AerisWeather